sensor_id;sensor_type;location;lat;lon;timestamp;P1;durP1;ratioP1;P2;durP2;ratioP2
25191;SDS011;13143;50.924;5.320;2022-07-22T00:02:09;24.95;;;6.95;;
25191;SDS011;13143;50.924;5.320;2022-07-22T00:04:35;20.13;;;6.18;;
25191;SDS011;13143;50.924;5.320;2022-07-22T00:07:00;21.65;;;6.35;;
25191;SDS011;13143;50.924;5.320;2022-07-22T00:09:26;18.67;;;6.00;;
25191;SDS011;13143;50.924;5.320;2022-07-22T00:11:52;26.77;;;6.78;;
25191;SDS011;13143;50.924;5.320;2022-07-22T00:14:18;23.52;;;5.93;;
25191;SDS011;13143;50.924;5.320;2022-07-22T00:16:43;24.63;;;6.78;;
25191;SDS011;13143;50.924;5.320;2022-07-22T00:19:09;29.23;;;6.60;;
25191;SDS011;13143;50.924;5.320;2022-07-22T00:21:35;29.67;;;6.45;;
25191;SDS011;13143;50.924;5.320;2022-07-22T00:24:01;20.08;;;6.35;;
25191;SDS011;13143;50.924;5.320;2022-07-22T00:26:28;18.30;;;6.32;;
25191;SDS011;13143;50.924;5.320;2022-07-22T00:28:53;18.95;;;6.53;;
25191;SDS011;13143;50.924;5.320;2022-07-22T00:31:19;25.67;;;6.72;;
25191;SDS011;13143;50.924;5.320;2022-07-22T00:33:45;21.65;;;5.80;;
25191;SDS011;13143;50.924;5.320;2022-07-22T00:36:10;23.55;;;6.38;;
25191;SDS011;13143;50.924;5.320;2022-07-22T00:38:37;18.95;;;5.95;;
25191;SDS011;13143;50.924;5.320;2022-07-22T00:41:03;20.92;;;6.63;;
25191;SDS011;13143;50.924;5.320;2022-07-22T00:43:47;26.40;;;5.90;;
25191;SDS011;13143;50.924;5.320;2022-07-22T00:46:14;14.07;;;5.85;;
25191;SDS011;13143;50.924;5.320;2022-07-22T00:48:40;17.50;;;6.50;;
25191;SDS011;13143;50.924;5.320;2022-07-22T00:51:05;19.33;;;6.07;;
25191;SDS011;13143;50.924;5.320;2022-07-22T00:53:31;22.23;;;7.32;;
25191;SDS011;13143;50.924;5.320;2022-07-22T00:55:57;22.77;;;5.75;;
25191;SDS011;13143;50.924;5.320;2022-07-22T00:58:23;20.95;;;5.35;;
25191;SDS011;13143;50.924;5.320;2022-07-22T01:00:49;18.52;;;5.68;;
25191;SDS011;13143;50.924;5.320;2022-07-22T01:03:15;21.27;;;6.05;;
25191;SDS011;13143;50.924;5.320;2022-07-22T01:05:41;17.15;;;6.03;;
25191;SDS011;13143;50.924;5.320;2022-07-22T01:08:07;15.82;;;5.93;;
25191;SDS011;13143;50.924;5.320;2022-07-22T01:10:33;12.90;;;5.85;;
25191;SDS011;13143;50.924;5.320;2022-07-22T01:12:59;18.17;;;6.13;;
25191;SDS011;13143;50.924;5.320;2022-07-22T01:15:25;26.25;;;6.25;;
25191;SDS011;13143;50.924;5.320;2022-07-22T01:17:50;18.38;;;6.35;;
25191;SDS011;13143;50.924;5.320;2022-07-22T01:20:16;20.48;;;6.93;;
25191;SDS011;13143;50.924;5.320;2022-07-22T01:22:42;19.80;;;6.07;;
25191;SDS011;13143;50.924;5.320;2022-07-22T01:25:09;22.95;;;5.55;;
25191;SDS011;13143;50.924;5.320;2022-07-22T01:27:35;23.40;;;5.80;;
25191;SDS011;13143;50.924;5.320;2022-07-22T01:30:04;15.68;;;5.22;;
25191;SDS011;13143;50.924;5.320;2022-07-22T01:32:30;19.77;;;5.10;;
25191;SDS011;13143;50.924;5.320;2022-07-22T01:34:56;20.85;;;5.82;;
25191;SDS011;13143;50.924;5.320;2022-07-22T01:37:22;16.92;;;5.10;;
25191;SDS011;13143;50.924;5.320;2022-07-22T01:39:48;20.88;;;5.57;;
25191;SDS011;13143;50.924;5.320;2022-07-22T01:42:14;18.73;;;5.75;;
25191;SDS011;13143;50.924;5.320;2022-07-22T01:44:40;17.80;;;5.35;;
25191;SDS011;13143;50.924;5.320;2022-07-22T01:47:06;18.02;;;6.22;;
25191;SDS011;13143;50.924;5.320;2022-07-22T01:49:32;18.35;;;6.05;;
25191;SDS011;13143;50.924;5.320;2022-07-22T01:51:59;24.60;;;6.13;;
25191;SDS011;13143;50.924;5.320;2022-07-22T01:54:28;18.40;;;5.07;;
25191;SDS011;13143;50.924;5.320;2022-07-22T01:56:54;21.63;;;6.10;;
25191;SDS011;13143;50.924;5.320;2022-07-22T01:59:20;16.17;;;5.70;;
25191;SDS011;13143;50.924;5.320;2022-07-22T02:01:46;16.52;;;5.20;;
25191;SDS011;13143;50.924;5.320;2022-07-22T02:04:11;24.15;;;6.53;;
25191;SDS011;13143;50.924;5.320;2022-07-22T02:06:37;20.85;;;5.60;;
25191;SDS011;13143;50.924;5.320;2022-07-22T02:09:03;16.35;;;5.68;;
25191;SDS011;13143;50.924;5.320;2022-07-22T02:11:29;17.67;;;5.13;;
25191;SDS011;13143;50.924;5.320;2022-07-22T02:13:55;15.07;;;5.40;;
25191;SDS011;13143;50.924;5.320;2022-07-22T02:16:21;14.82;;;5.15;;
25191;SDS011;13143;50.924;5.320;2022-07-22T02:18:46;18.27;;;5.53;;
25191;SDS011;13143;50.924;5.320;2022-07-22T02:21:12;16.10;;;5.88;;
25191;SDS011;13143;50.924;5.320;2022-07-22T02:23:38;18.65;;;5.68;;
25191;SDS011;13143;50.924;5.320;2022-07-22T02:26:04;19.02;;;5.70;;
25191;SDS011;13143;50.924;5.320;2022-07-22T02:28:29;19.92;;;5.60;;
25191;SDS011;13143;50.924;5.320;2022-07-22T02:30:55;13.30;;;5.13;;
25191;SDS011;13143;50.924;5.320;2022-07-22T02:33:21;22.35;;;5.43;;
25191;SDS011;13143;50.924;5.320;2022-07-22T02:35:46;18.05;;;6.40;;
25191;SDS011;13143;50.924;5.320;2022-07-22T02:38:12;21.80;;;6.80;;
25191;SDS011;13143;50.924;5.320;2022-07-22T02:40:38;19.73;;;6.15;;
25191;SDS011;13143;50.924;5.320;2022-07-22T02:43:04;19.60;;;7.07;;
25191;SDS011;13143;50.924;5.320;2022-07-22T02:45:31;15.40;;;6.07;;
25191;SDS011;13143;50.924;5.320;2022-07-22T02:47:58;28.70;;;6.63;;
25191;SDS011;13143;50.924;5.320;2022-07-22T02:50:24;18.20;;;6.65;;
25191;SDS011;13143;50.924;5.320;2022-07-22T02:52:50;20.08;;;6.22;;
25191;SDS011;13143;50.924;5.320;2022-07-22T02:55:16;16.98;;;6.32;;
25191;SDS011;13143;50.924;5.320;2022-07-22T02:57:42;15.10;;;6.22;;
25191;SDS011;13143;50.924;5.320;2022-07-22T03:00:08;17.48;;;6.00;;
25191;SDS011;13143;50.924;5.320;2022-07-22T03:02:35;13.55;;;6.50;;
25191;SDS011;13143;50.924;5.320;2022-07-22T03:05:02;13.40;;;6.32;;
25191;SDS011;13143;50.924;5.320;2022-07-22T03:07:28;26.20;;;7.20;;
25191;SDS011;13143;50.924;5.320;2022-07-22T03:09:54;23.20;;;6.38;;
25191;SDS011;13143;50.924;5.320;2022-07-22T03:12:19;12.73;;;6.25;;
25191;SDS011;13143;50.924;5.320;2022-07-22T03:14:45;17.23;;;6.57;;
25191;SDS011;13143;50.924;5.320;2022-07-22T03:17:11;17.45;;;6.20;;
25191;SDS011;13143;50.924;5.320;2022-07-22T03:19:36;22.95;;;6.70;;
25191;SDS011;13143;50.924;5.320;2022-07-22T03:22:02;15.18;;;6.53;;
25191;SDS011;13143;50.924;5.320;2022-07-22T03:24:28;17.48;;;6.55;;
25191;SDS011;13143;50.924;5.320;2022-07-22T03:26:53;14.30;;;5.97;;
25191;SDS011;13143;50.924;5.320;2022-07-22T03:29:19;19.48;;;6.55;;
25191;SDS011;13143;50.924;5.320;2022-07-22T03:31:44;16.73;;;6.25;;
25191;SDS011;13143;50.924;5.320;2022-07-22T03:34:10;14.93;;;6.35;;
25191;SDS011;13143;50.924;5.320;2022-07-22T03:36:36;15.63;;;5.95;;
25191;SDS011;13143;50.924;5.320;2022-07-22T03:39:02;11.82;;;5.63;;
25191;SDS011;13143;50.924;5.320;2022-07-22T03:41:28;12.70;;;5.70;;
25191;SDS011;13143;50.924;5.320;2022-07-22T03:43:53;12.95;;;6.20;;
25191;SDS011;13143;50.924;5.320;2022-07-22T03:46:19;17.42;;;5.80;;
25191;SDS011;13143;50.924;5.320;2022-07-22T03:48:45;16.65;;;6.95;;
25191;SDS011;13143;50.924;5.320;2022-07-22T03:51:10;19.00;;;6.20;;
25191;SDS011;13143;50.924;5.320;2022-07-22T03:53:36;15.32;;;6.32;;
25191;SDS011;13143;50.924;5.320;2022-07-22T03:56:02;15.48;;;6.10;;
25191;SDS011;13143;50.924;5.320;2022-07-22T03:58:28;13.90;;;6.20;;
25191;SDS011;13143;50.924;5.320;2022-07-22T04:00:54;17.85;;;6.45;;
25191;SDS011;13143;50.924;5.320;2022-07-22T04:03:19;13.32;;;6.25;;
25191;SDS011;13143;50.924;5.320;2022-07-22T04:05:45;12.50;;;6.47;;
25191;SDS011;13143;50.924;5.320;2022-07-22T04:08:11;17.08;;;6.53;;
25191;SDS011;13143;50.924;5.320;2022-07-22T04:10:37;15.60;;;7.03;;
25191;SDS011;13143;50.924;5.320;2022-07-22T04:13:03;16.63;;;6.70;;
25191;SDS011;13143;50.924;5.320;2022-07-22T04:15:29;13.45;;;6.78;;
25191;SDS011;13143;50.924;5.320;2022-07-22T04:17:55;12.02;;;6.32;;
25191;SDS011;13143;50.924;5.320;2022-07-22T04:20:21;16.92;;;6.57;;
25191;SDS011;13143;50.924;5.320;2022-07-22T04:22:47;14.60;;;6.45;;
25191;SDS011;13143;50.924;5.320;2022-07-22T04:25:12;13.55;;;6.65;;
25191;SDS011;13143;50.924;5.320;2022-07-22T04:27:38;13.13;;;6.88;;
25191;SDS011;13143;50.924;5.320;2022-07-22T04:30:04;13.77;;;6.55;;
25191;SDS011;13143;50.924;5.320;2022-07-22T04:32:30;14.70;;;7.32;;
25191;SDS011;13143;50.924;5.320;2022-07-22T04:34:55;16.08;;;7.15;;
25191;SDS011;13143;50.924;5.320;2022-07-22T04:37:21;17.92;;;7.60;;
25191;SDS011;13143;50.924;5.320;2022-07-22T04:39:47;13.70;;;7.63;;
25191;SDS011;13143;50.924;5.320;2022-07-22T04:42:12;16.75;;;7.35;;
25191;SDS011;13143;50.924;5.320;2022-07-22T04:44:38;16.63;;;8.00;;
25191;SDS011;13143;50.924;5.320;2022-07-22T04:47:03;16.17;;;7.70;;
25191;SDS011;13143;50.924;5.320;2022-07-22T04:49:29;17.50;;;8.07;;
25191;SDS011;13143;50.924;5.320;2022-07-22T04:51:55;17.45;;;8.10;;
25191;SDS011;13143;50.924;5.320;2022-07-22T04:54:20;18.85;;;8.02;;
25191;SDS011;13143;50.924;5.320;2022-07-22T04:56:46;15.88;;;7.80;;
25191;SDS011;13143;50.924;5.320;2022-07-22T04:59:11;21.85;;;7.90;;
25191;SDS011;13143;50.924;5.320;2022-07-22T05:01:37;13.65;;;7.47;;
25191;SDS011;13143;50.924;5.320;2022-07-22T05:04:03;21.65;;;7.90;;
25191;SDS011;13143;50.924;5.320;2022-07-22T05:06:29;14.77;;;7.03;;
25191;SDS011;13143;50.924;5.320;2022-07-22T05:08:55;16.98;;;8.20;;
25191;SDS011;13143;50.924;5.320;2022-07-22T05:11:20;17.42;;;8.38;;
25191;SDS011;13143;50.924;5.320;2022-07-22T05:13:46;13.85;;;7.82;;
25191;SDS011;13143;50.924;5.320;2022-07-22T05:16:12;15.15;;;7.43;;
25191;SDS011;13143;50.924;5.320;2022-07-22T05:18:38;22.35;;;7.72;;
25191;SDS011;13143;50.924;5.320;2022-07-22T05:21:04;14.50;;;7.40;;
25191;SDS011;13143;50.924;5.320;2022-07-22T05:23:33;8.40;;;5.55;;
25191;SDS011;13143;50.924;5.320;2022-07-22T05:25:58;15.00;;;6.80;;
25191;SDS011;13143;50.924;5.320;2022-07-22T05:28:24;18.55;;;6.25;;
25191;SDS011;13143;50.924;5.320;2022-07-22T05:30:50;14.05;;;5.75;;
25191;SDS011;13143;50.924;5.320;2022-07-22T05:33:15;24.13;;;6.20;;
25191;SDS011;13143;50.924;5.320;2022-07-22T05:35:41;12.18;;;5.55;;
25191;SDS011;13143;50.924;5.320;2022-07-22T05:38:07;19.83;;;6.25;;
25191;SDS011;13143;50.924;5.320;2022-07-22T05:40:32;12.95;;;5.50;;
25191;SDS011;13143;50.924;5.320;2022-07-22T05:42:58;11.57;;;5.65;;
25191;SDS011;13143;50.924;5.320;2022-07-22T05:45:24;9.48;;;5.15;;
25191;SDS011;13143;50.924;5.320;2022-07-22T05:47:49;11.10;;;5.22;;
25191;SDS011;13143;50.924;5.320;2022-07-22T05:50:15;10.60;;;5.40;;
25191;SDS011;13143;50.924;5.320;2022-07-22T05:52:41;11.38;;;5.13;;
25191;SDS011;13143;50.924;5.320;2022-07-22T05:55:07;9.27;;;4.20;;
25191;SDS011;13143;50.924;5.320;2022-07-22T05:57:33;9.10;;;4.80;;
25191;SDS011;13143;50.924;5.320;2022-07-22T05:59:59;8.45;;;4.03;;
25191;SDS011;13143;50.924;5.320;2022-07-22T06:02:24;11.10;;;4.13;;
25191;SDS011;13143;50.924;5.320;2022-07-22T06:04:50;8.82;;;3.38;;
25191;SDS011;13143;50.924;5.320;2022-07-22T06:07:16;9.35;;;3.67;;
25191;SDS011;13143;50.924;5.320;2022-07-22T06:09:42;9.65;;;3.58;;
25191;SDS011;13143;50.924;5.320;2022-07-22T06:12:07;11.63;;;3.63;;
25191;SDS011;13143;50.924;5.320;2022-07-22T06:14:33;9.52;;;3.60;;
25191;SDS011;13143;50.924;5.320;2022-07-22T06:17:01;5.32;;;2.78;;
25191;SDS011;13143;50.924;5.320;2022-07-22T06:19:27;9.90;;;3.60;;
25191;SDS011;13143;50.924;5.320;2022-07-22T06:21:54;10.13;;;3.35;;
25191;SDS011;13143;50.924;5.320;2022-07-22T06:24:20;5.47;;;2.63;;
25191;SDS011;13143;50.924;5.320;2022-07-22T06:26:46;7.60;;;3.17;;
25191;SDS011;13143;50.924;5.320;2022-07-22T06:29:12;8.13;;;2.88;;
25191;SDS011;13143;50.924;5.320;2022-07-22T06:31:37;6.05;;;2.72;;
25191;SDS011;13143;50.924;5.320;2022-07-22T06:34:03;10.10;;;2.67;;
25191;SDS011;13143;50.924;5.320;2022-07-22T06:36:32;9.00;;;2.55;;
25191;SDS011;13143;50.924;5.320;2022-07-22T06:38:58;6.15;;;2.90;;
25191;SDS011;13143;50.924;5.320;2022-07-22T06:41:24;7.32;;;2.58;;
25191;SDS011;13143;50.924;5.320;2022-07-22T06:43:50;5.75;;;2.50;;
25191;SDS011;13143;50.924;5.320;2022-07-22T06:46:16;5.93;;;2.40;;
25191;SDS011;13143;50.924;5.320;2022-07-22T06:48:42;6.55;;;2.47;;
25191;SDS011;13143;50.924;5.320;2022-07-22T06:51:08;4.32;;;2.25;;
25191;SDS011;13143;50.924;5.320;2022-07-22T06:53:34;5.32;;;2.63;;
25191;SDS011;13143;50.924;5.320;2022-07-22T06:56:00;8.25;;;2.90;;
25191;SDS011;13143;50.924;5.320;2022-07-22T06:58:25;9.77;;;2.75;;
25191;SDS011;13143;50.924;5.320;2022-07-22T07:00:51;6.70;;;2.50;;
25191;SDS011;13143;50.924;5.320;2022-07-22T07:03:17;9.48;;;2.72;;
25191;SDS011;13143;50.924;5.320;2022-07-22T07:05:43;5.22;;;2.40;;
25191;SDS011;13143;50.924;5.320;2022-07-22T07:08:09;8.02;;;3.03;;
25191;SDS011;13143;50.924;5.320;2022-07-22T07:10:34;8.18;;;2.88;;
25191;SDS011;13143;50.924;5.320;2022-07-22T07:13:00;7.35;;;2.65;;
25191;SDS011;13143;50.924;5.320;2022-07-22T07:15:26;8.75;;;2.80;;
25191;SDS011;13143;50.924;5.320;2022-07-22T07:17:53;5.47;;;2.75;;
25191;SDS011;13143;50.924;5.320;2022-07-22T07:20:19;8.60;;;3.00;;
25191;SDS011;13143;50.924;5.320;2022-07-22T07:22:45;7.82;;;2.85;;
25191;SDS011;13143;50.924;5.320;2022-07-22T07:25:10;8.55;;;2.80;;
25191;SDS011;13143;50.924;5.320;2022-07-22T07:27:36;7.70;;;2.70;;
25191;SDS011;13143;50.924;5.320;2022-07-22T07:30:05;4.20;;;2.30;;
25191;SDS011;13143;50.924;5.320;2022-07-22T07:32:34;6.40;;;2.58;;
25191;SDS011;13143;50.924;5.320;2022-07-22T07:35:00;7.18;;;2.42;;
25191;SDS011;13143;50.924;5.320;2022-07-22T07:37:27;5.65;;;2.58;;
25191;SDS011;13143;50.924;5.320;2022-07-22T07:39:52;5.93;;;2.15;;
25191;SDS011;13143;50.924;5.320;2022-07-22T07:42:18;3.95;;;2.33;;
25191;SDS011;13143;50.924;5.320;2022-07-22T07:44:44;7.40;;;2.38;;
25191;SDS011;13143;50.924;5.320;2022-07-22T07:47:09;7.07;;;2.33;;
25191;SDS011;13143;50.924;5.320;2022-07-22T07:49:35;7.63;;;2.47;;
25191;SDS011;13143;50.924;5.320;2022-07-22T07:52:01;6.53;;;2.45;;
25191;SDS011;13143;50.924;5.320;2022-07-22T07:54:26;5.40;;;2.42;;
25191;SDS011;13143;50.924;5.320;2022-07-22T07:56:52;6.88;;;2.15;;
25191;SDS011;13143;50.924;5.320;2022-07-22T07:59:18;6.18;;;2.17;;
25191;SDS011;13143;50.924;5.320;2022-07-22T08:01:43;6.10;;;2.20;;
25191;SDS011;13143;50.924;5.320;2022-07-22T08:04:09;4.68;;;2.28;;
25191;SDS011;13143;50.924;5.320;2022-07-22T08:06:35;5.72;;;2.67;;
25191;SDS011;13143;50.924;5.320;2022-07-22T08:09:00;4.50;;;2.25;;
25191;SDS011;13143;50.924;5.320;2022-07-22T08:11:26;5.50;;;2.00;;
25191;SDS011;13143;50.924;5.320;2022-07-22T08:13:52;9.13;;;2.55;;
25191;SDS011;13143;50.924;5.320;2022-07-22T08:16:17;4.63;;;2.22;;
25191;SDS011;13143;50.924;5.320;2022-07-22T08:18:43;6.47;;;2.78;;
25191;SDS011;13143;50.924;5.320;2022-07-22T08:21:09;4.30;;;2.33;;
25191;SDS011;13143;50.924;5.320;2022-07-22T08:23:35;8.15;;;2.28;;
25191;SDS011;13143;50.924;5.320;2022-07-22T08:26:00;5.97;;;2.80;;
25191;SDS011;13143;50.924;5.320;2022-07-22T08:28:26;9.50;;;2.85;;
25191;SDS011;13143;50.924;5.320;2022-07-22T08:30:52;7.53;;;2.40;;
25191;SDS011;13143;50.924;5.320;2022-07-22T08:33:18;6.78;;;2.67;;
25191;SDS011;13143;50.924;5.320;2022-07-22T08:35:44;6.57;;;2.25;;
25191;SDS011;13143;50.924;5.320;2022-07-22T08:38:09;7.13;;;2.30;;
25191;SDS011;13143;50.924;5.320;2022-07-22T08:40:35;8.38;;;2.65;;
25191;SDS011;13143;50.924;5.320;2022-07-22T08:43:01;7.60;;;2.38;;
25191;SDS011;13143;50.924;5.320;2022-07-22T08:45:30;7.38;;;2.67;;
25191;SDS011;13143;50.924;5.320;2022-07-22T08:47:57;6.32;;;2.42;;
25191;SDS011;13143;50.924;5.320;2022-07-22T08:50:30;8.55;;;2.35;;
25191;SDS011;13143;50.924;5.320;2022-07-22T08:52:56;9.50;;;2.88;;
25191;SDS011;13143;50.924;5.320;2022-07-22T08:55:22;5.72;;;2.60;;
25191;SDS011;13143;50.924;5.320;2022-07-22T08:57:49;10.50;;;2.47;;
25191;SDS011;13143;50.924;5.320;2022-07-22T09:00:16;7.97;;;2.58;;
25191;SDS011;13143;50.924;5.320;2022-07-22T09:02:44;4.22;;;2.50;;
25191;SDS011;13143;50.924;5.320;2022-07-22T09:05:11;9.70;;;3.13;;
25191;SDS011;13143;50.924;5.320;2022-07-22T09:07:39;9.65;;;2.70;;
25191;SDS011;13143;50.924;5.320;2022-07-22T09:10:08;4.82;;;3.13;;
25191;SDS011;13143;50.924;5.320;2022-07-22T09:12:49;12.00;;;3.05;;
25191;SDS011;13143;50.924;5.320;2022-07-22T09:15:31;8.48;;;3.35;;
25191;SDS011;13143;50.924;5.320;2022-07-22T09:18:00;8.13;;;2.67;;
25191;SDS011;13143;50.924;5.320;2022-07-22T09:20:27;10.23;;;2.90;;
25191;SDS011;13143;50.924;5.320;2022-07-22T09:22:53;6.82;;;3.08;;
25191;SDS011;13143;50.924;5.320;2022-07-22T09:25:24;9.13;;;3.20;;
25191;SDS011;13143;50.924;5.320;2022-07-22T09:30:35;12.15;;;3.40;;
25191;SDS011;13143;50.924;5.320;2022-07-22T09:35:32;6.50;;;3.17;;
25191;SDS011;13143;50.924;5.320;2022-07-22T09:37:58;10.48;;;3.53;;
25191;SDS011;13143;50.924;5.320;2022-07-22T09:40:33;6.88;;;3.05;;
25191;SDS011;13143;50.924;5.320;2022-07-22T09:43:02;9.50;;;3.00;;
25191;SDS011;13143;50.924;5.320;2022-07-22T09:45:30;11.00;;;3.35;;
25191;SDS011;13143;50.924;5.320;2022-07-22T09:47:57;8.07;;;2.78;;
25191;SDS011;13143;50.924;5.320;2022-07-22T09:50:26;8.65;;;3.15;;
25191;SDS011;13143;50.924;5.320;2022-07-22T09:52:54;8.77;;;3.15;;
25191;SDS011;13143;50.924;5.320;2022-07-22T09:55:22;9.02;;;3.33;;
25191;SDS011;13143;50.924;5.320;2022-07-22T09:57:50;9.85;;;3.20;;
25191;SDS011;13143;50.924;5.320;2022-07-22T10:00:21;11.10;;;3.17;;
25191;SDS011;13143;50.924;5.320;2022-07-22T10:03:08;11.95;;;3.72;;
25191;SDS011;13143;50.924;5.320;2022-07-22T10:05:38;10.02;;;3.70;;
25191;SDS011;13143;50.924;5.320;2022-07-22T10:08:06;10.77;;;4.00;;
25191;SDS011;13143;50.924;5.320;2022-07-22T10:10:33;11.05;;;3.78;;
25191;SDS011;13143;50.924;5.320;2022-07-22T10:13:01;10.82;;;3.33;;
25191;SDS011;13143;50.924;5.320;2022-07-22T10:15:28;9.68;;;3.03;;
25191;SDS011;13143;50.924;5.320;2022-07-22T10:17:55;12.90;;;3.47;;
25191;SDS011;13143;50.924;5.320;2022-07-22T10:20:24;10.45;;;3.58;;
25191;SDS011;13143;50.924;5.320;2022-07-22T10:23:02;8.13;;;3.22;;
25191;SDS011;13143;50.924;5.320;2022-07-22T10:25:47;8.82;;;3.20;;
25191;SDS011;13143;50.924;5.320;2022-07-22T10:28:32;10.90;;;3.42;;
25191;SDS011;13143;50.924;5.320;2022-07-22T10:33:40;8.00;;;3.40;;
25191;SDS011;13143;50.924;5.320;2022-07-22T10:36:06;9.07;;;3.55;;
25191;SDS011;13143;50.924;5.320;2022-07-22T10:38:34;9.20;;;3.53;;
25191;SDS011;13143;50.924;5.320;2022-07-22T10:41:00;10.05;;;3.72;;
25191;SDS011;13143;50.924;5.320;2022-07-22T10:43:28;10.40;;;3.38;;
25191;SDS011;13143;50.924;5.320;2022-07-22T10:51:05;13.18;;;3.58;;
25191;SDS011;13143;50.924;5.320;2022-07-22T10:58:50;13.00;;;4.00;;
25191;SDS011;13143;50.924;5.320;2022-07-22T11:01:25;11.52;;;3.38;;
25191;SDS011;13143;50.924;5.320;2022-07-22T11:03:53;9.23;;;3.40;;
25191;SDS011;13143;50.924;5.320;2022-07-22T11:06:29;12.93;;;3.67;;
25191;SDS011;13143;50.924;5.320;2022-07-22T11:09:00;7.90;;;3.85;;
25191;SDS011;13143;50.924;5.320;2022-07-22T11:14:26;6.53;;;3.72;;
25191;SDS011;13143;50.924;5.320;2022-07-22T11:17:05;7.90;;;3.33;;
25191;SDS011;13143;50.924;5.320;2022-07-22T11:19:33;10.05;;;3.75;;
25191;SDS011;13143;50.924;5.320;2022-07-22T11:22:03;10.05;;;3.80;;
25191;SDS011;13143;50.924;5.320;2022-07-22T11:24:31;9.25;;;3.63;;
25191;SDS011;13143;50.924;5.320;2022-07-22T11:26:58;8.65;;;3.58;;
25191;SDS011;13143;50.924;5.320;2022-07-22T11:29:25;7.03;;;3.17;;
25191;SDS011;13143;50.924;5.320;2022-07-22T11:32:05;10.70;;;3.95;;
25191;SDS011;13143;50.924;5.320;2022-07-22T11:34:35;10.07;;;3.30;;
25191;SDS011;13143;50.924;5.320;2022-07-22T11:37:01;9.27;;;3.40;;
25191;SDS011;13143;50.924;5.320;2022-07-22T11:39:28;9.07;;;3.67;;
25191;SDS011;13143;50.924;5.320;2022-07-22T11:41:55;7.45;;;3.58;;
25191;SDS011;13143;50.924;5.320;2022-07-22T11:44:25;11.25;;;4.10;;
25191;SDS011;13143;50.924;5.320;2022-07-22T11:46:55;6.88;;;3.35;;
25191;SDS011;13143;50.924;5.320;2022-07-22T11:49:24;9.82;;;3.53;;
25191;SDS011;13143;50.924;5.320;2022-07-22T11:51:51;7.50;;;3.30;;
25191;SDS011;13143;50.924;5.320;2022-07-22T11:54:17;12.32;;;3.65;;
25191;SDS011;13143;50.924;5.320;2022-07-22T11:56:43;10.13;;;3.72;;
25191;SDS011;13143;50.924;5.320;2022-07-22T11:59:12;9.38;;;3.78;;
25191;SDS011;13143;50.924;5.320;2022-07-22T12:01:39;8.40;;;3.95;;
25191;SDS011;13143;50.924;5.320;2022-07-22T12:04:09;8.40;;;3.75;;
25191;SDS011;13143;50.924;5.320;2022-07-22T12:06:37;7.80;;;3.53;;
25191;SDS011;13143;50.924;5.320;2022-07-22T12:11:31;7.63;;;3.70;;
25191;SDS011;13143;50.924;5.320;2022-07-22T12:14:01;8.88;;;3.70;;
25191;SDS011;13143;50.924;5.320;2022-07-22T12:16:33;11.27;;;3.33;;
25191;SDS011;13143;50.924;5.320;2022-07-22T12:19:00;8.43;;;3.47;;
25191;SDS011;13143;50.924;5.320;2022-07-22T12:21:32;10.70;;;3.55;;
25191;SDS011;13143;50.924;5.320;2022-07-22T12:26:37;8.13;;;3.38;;
25191;SDS011;13143;50.924;5.320;2022-07-22T12:31:51;5.93;;;3.28;;
25191;SDS011;13143;50.924;5.320;2022-07-22T12:34:28;5.88;;;3.05;;
25191;SDS011;13143;50.924;5.320;2022-07-22T12:36:58;6.93;;;3.10;;
25191;SDS011;13143;50.924;5.320;2022-07-22T12:39:28;8.98;;;3.58;;
25191;SDS011;13143;50.924;5.320;2022-07-22T12:41:54;5.70;;;3.30;;
25191;SDS011;13143;50.924;5.320;2022-07-22T12:44:21;9.35;;;3.13;;
25191;SDS011;13143;50.924;5.320;2022-07-22T12:46:52;9.65;;;3.90;;
25191;SDS011;13143;50.924;5.320;2022-07-22T12:49:20;8.25;;;3.15;;
25191;SDS011;13143;50.924;5.320;2022-07-22T12:54:33;9.35;;;3.30;;
25191;SDS011;13143;50.924;5.320;2022-07-22T12:56:59;14.50;;;4.38;;
25191;SDS011;13143;50.924;5.320;2022-07-22T12:59:25;8.35;;;3.75;;
25191;SDS011;13143;50.924;5.320;2022-07-22T13:01:51;7.50;;;3.70;;
25191;SDS011;13143;50.924;5.320;2022-07-22T13:04:17;9.45;;;3.75;;
25191;SDS011;13143;50.924;5.320;2022-07-22T13:06:43;7.30;;;3.63;;
25191;SDS011;13143;50.924;5.320;2022-07-22T13:09:08;8.98;;;3.90;;
25191;SDS011;13143;50.924;5.320;2022-07-22T13:11:34;8.65;;;3.88;;
25191;SDS011;13143;50.924;5.320;2022-07-22T13:14:08;9.32;;;4.03;;
25191;SDS011;13143;50.924;5.320;2022-07-22T13:16:34;7.82;;;3.65;;
25191;SDS011;13143;50.924;5.320;2022-07-22T13:19:00;15.50;;;3.50;;
25191;SDS011;13143;50.924;5.320;2022-07-22T13:21:26;9.13;;;3.60;;
25191;SDS011;13143;50.924;5.320;2022-07-22T13:23:52;6.18;;;3.28;;
25191;SDS011;13143;50.924;5.320;2022-07-22T13:26:17;7.85;;;3.80;;
25191;SDS011;13143;50.924;5.320;2022-07-22T13:28:43;8.35;;;3.42;;
25191;SDS011;13143;50.924;5.320;2022-07-22T13:31:09;8.52;;;3.28;;
25191;SDS011;13143;50.924;5.320;2022-07-22T13:33:34;11.73;;;4.13;;
25191;SDS011;13143;50.924;5.320;2022-07-22T13:36:02;9.45;;;3.63;;
25191;SDS011;13143;50.924;5.320;2022-07-22T13:38:28;8.20;;;3.53;;
25191;SDS011;13143;50.924;5.320;2022-07-22T13:40:54;7.63;;;3.20;;
25191;SDS011;13143;50.924;5.320;2022-07-22T13:43:21;7.25;;;3.40;;
25191;SDS011;13143;50.924;5.320;2022-07-22T13:45:48;5.15;;;3.17;;
25191;SDS011;13143;50.924;5.320;2022-07-22T13:48:14;5.97;;;3.47;;
25191;SDS011;13143;50.924;5.320;2022-07-22T13:50:42;9.40;;;3.58;;
25191;SDS011;13143;50.924;5.320;2022-07-22T13:53:07;9.45;;;3.85;;
25191;SDS011;13143;50.924;5.320;2022-07-22T13:55:33;6.20;;;3.67;;
25191;SDS011;13143;50.924;5.320;2022-07-22T13:57:59;5.55;;;3.40;;
25191;SDS011;13143;50.924;5.320;2022-07-22T14:00:25;7.20;;;3.30;;
25191;SDS011;13143;50.924;5.320;2022-07-22T14:02:50;7.07;;;3.80;;
25191;SDS011;13143;50.924;5.320;2022-07-22T14:05:17;9.57;;;3.80;;
25191;SDS011;13143;50.924;5.320;2022-07-22T14:07:43;10.40;;;3.38;;
25191;SDS011;13143;50.924;5.320;2022-07-22T14:10:09;7.07;;;3.83;;
25191;SDS011;13143;50.924;5.320;2022-07-22T14:12:36;12.77;;;4.35;;
25191;SDS011;13143;50.924;5.320;2022-07-22T14:15:02;8.20;;;3.92;;
25191;SDS011;13143;50.924;5.320;2022-07-22T14:17:28;9.27;;;3.70;;
25191;SDS011;13143;50.924;5.320;2022-07-22T14:19:54;6.57;;;3.30;;
25191;SDS011;13143;50.924;5.320;2022-07-22T14:22:19;8.90;;;4.18;;
25191;SDS011;13143;50.924;5.320;2022-07-22T14:24:45;8.85;;;3.38;;
25191;SDS011;13143;50.924;5.320;2022-07-22T14:27:11;7.30;;;3.58;;
25191;SDS011;13143;50.924;5.320;2022-07-22T14:29:36;6.28;;;3.95;;
25191;SDS011;13143;50.924;5.320;2022-07-22T14:32:02;7.03;;;3.33;;
25191;SDS011;13143;50.924;5.320;2022-07-22T14:34:28;6.72;;;3.38;;
25191;SDS011;13143;50.924;5.320;2022-07-22T14:36:54;8.10;;;4.30;;
25191;SDS011;13143;50.924;5.320;2022-07-22T14:39:19;6.75;;;4.00;;
25191;SDS011;13143;50.924;5.320;2022-07-22T14:41:45;10.32;;;4.50;;
25191;SDS011;13143;50.924;5.320;2022-07-22T14:44:11;6.00;;;4.00;;
25191;SDS011;13143;50.924;5.320;2022-07-22T14:46:38;7.88;;;4.10;;
25191;SDS011;13143;50.924;5.320;2022-07-22T14:49:03;9.25;;;4.10;;
25191;SDS011;13143;50.924;5.320;2022-07-22T14:51:30;5.93;;;3.88;;
25191;SDS011;13143;50.924;5.320;2022-07-22T14:53:56;11.05;;;3.60;;
25191;SDS011;13143;50.924;5.320;2022-07-22T14:56:22;10.77;;;3.80;;
25191;SDS011;13143;50.924;5.320;2022-07-22T14:58:47;7.43;;;3.53;;
25191;SDS011;13143;50.924;5.320;2022-07-22T15:01:13;11.85;;;4.07;;
25191;SDS011;13143;50.924;5.320;2022-07-22T15:03:39;7.47;;;3.85;;
25191;SDS011;13143;50.924;5.320;2022-07-22T15:06:05;10.95;;;3.58;;
25191;SDS011;13143;50.924;5.320;2022-07-22T15:08:30;10.48;;;4.47;;
25191;SDS011;13143;50.924;5.320;2022-07-22T15:10:56;7.18;;;3.92;;